x

Gulf Of Maine - 78 Nm East Of Portsmouth, Nh (44005) Wave Buoy

4:50pm - Mon 20th Oct 2014 All times are EDT. -4 hours from GMT.

  • Sig Wave height 4.3ft
  • Peak Period 6s
  • Average Period 4s
  • Wind
    20mph, 25mph gusts
  • Sea Temp 56°f
  • Air Temp 51°f
  • Sea Pressure 1013.9mb
  • Gulf Of Maine - 78 Nm East Of Portsmouth, Nh
  • Gulf Of Maine - 78 Nm East Of Portsmouth, Nh

More Historic Weather Station data

Upgrade to MSW Pro to gain access to the past 30 days of data for over 8000 Wavebouys and Weather Stations around the globe.

Join Pro

Comparision Forecast

View Surf forecast
   
Mon 10/20 4:50pm 4.5ft 6s 4s 20 25 mph 1013.9mb 56f 51f
3:50pm 4ft 5s 4s 20 25 mph 1013.9mb 56f 50f
2:50pm 3.5ft 4s 4s 20 25 mph 1013.8mb 56f 48f
1:50pm 3.5ft 11s 4s 20 22 mph 1014.1mb 56f 47f
12:50pm 3ft 11s 4s 16 22 mph 1014.4mb 56f 46f
11:50am 3ft 10s 4s 16 20 mph 1014.9mb 56f 46f
10:50am 3.5ft 11s 5s 13 18 mph 1015.1mb 56f 46f
9:50am 3.5ft 5s 5s 13 18 mph 1015.2mb 55f 46f
8:50am 4ft 6s 5s 13 20 mph 1014.7mb 55f 46f
7:50am 5ft 6s 5s 16 20 mph 1014.2mb 55f 46f
6:50am 5ft 6s 5s 18 22 mph 1013.2mb 55f 46f
5:50am 4.5ft 6s 5s 20 25 mph 1012.6mb 55f 47f
4:50am  -   -   -  20 25 mph 1012.2mb 55f 47f
3:50am  -   -   -  20 27 mph 1011.6mb 56f 47f
2:50am 5.5ft 6s 5s 25 29 mph 1011.1mb 56f 47f
1:50am 6ft 6s 5s 27 31 mph 1010.7mb 56f 47f
12:50am 5.5ft 5s  -  22 31 mph 1010.2mb 56f 48f
Sun 10/19 10:50pm 7.5ft 6s 5s 25 31 mph 1009.5mb 56f 48f
9:50pm 7ft 12s 5s 27 34 mph 1009.1mb 56f 49f
8:50pm 6ft 6s 5s 25 31 mph 1008.8mb 56f 49f
7:50pm 7ft 6s 5s 25 31 mph 1008.2mb 56f 49f
6:50pm 6ft 6s 5s 25 31 mph 1007.5mb 56f 50f
5:50pm 5ft 5s 5s 27 34 mph 1006.8mb 57f 51f
4:50pm 4.5ft 14s 5s 22 29 mph 1006.8mb 57f 52f
3:50pm  -   -   -  13 18 mph 1006.7mb 57f 50f
2:50pm 5ft 13s 5s 13 16 mph 1006.3mb 57f 49f
1:50pm 5ft 10s 5s 13 18 mph 1006.5mb 57f 48f
12:50pm 5.5ft 13s 6s 18 22 mph 1005.2mb 57f 48f
11:50am 6ft 12s 6s 18 22 mph 1006.1mb 57f 48f
10:50am 6.5ft 14s 6s 18 22 mph 1006.1mb 57f 49f
9:50am 6ft 14s 5s 20 27 mph 1005.7mb 57f 49f
8:50am 6.5ft 13s 6s 22 27 mph 1005.2mb 57f 50f
7:50am 6ft 13s 6s 22 27 mph 1004mb 57f 52f
6:50am 5.5ft 14s 6s 22 27 mph 1002.9mb 57f 53f
5:50am 6ft 15s 7s 22 27 mph 1001.8mb 57f 54f
4:50am  -   -   -  13 20 mph 1001.1mb 57f 57f
3:50am 6ft 16s 7s 18 20 mph 1000.6mb 57f 57f
2:50am 7ft 16s 7s 16 18 mph 1000.3mb 57f 58f
1:50am 7ft 9s 7s 18 20 mph 999.8mb 57f 58f
12:50am 6.5ft 10s 8s 18 20 mph 999.4mb 57f 58f
Sat 10/18 11:50pm 7ft 10s 8s 16 18 mph 999.1mb 57f 59f
10:50pm 6ft 11s 8s 13 18 mph 998.9mb 58f 60f
9:50pm 6.5ft 10s 8s 9 11 mph 998.8mb 58f 60f
8:50pm 6ft 11s 7s 9 11 mph 998.6mb 58f 60f
7:50pm 6.5ft 11s 7s 11 13 mph 998.2mb 58f 60f
6:50pm 6.5ft 14s 7s 13 16 mph 998mb 58f 60f
5:50pm 6ft 14s 7s 16 18 mph 997.9mb 58f 60f
4:50pm 6ft 14s 7s 13 16 mph 998mb 58f 60f
3:50pm 7.5ft 15s 8s 13 16 mph 998.7mb 58f 60f
2:50pm 7ft 10s 7s 13 16 mph 999.2mb 58f 60f
1:50pm 8ft 15s 8s 13 16 mph 999.6mb 58f 60f
12:50pm 7ft 9s 7s 13 16 mph 1000.2mb 58f 60f
11:50am 8.5ft 16s 8s 13 18 mph 1001mb 58f 60f
10:50am 7.5ft 14s 8s 16 18 mph 1001.4mb 57f 60f
9:50am 7.5ft 10s 8s 13 16 mph 1001.7mb 57f 60f
8:50am 7ft 10s 7s 13 18 mph 1002.1mb 57f 60f
7:50am 7ft 10s 7s 16
mph
1002.3mb 57f 59f
6:50am 6ft 10s 7s 16 18 mph 1002mb 57f 59f
5:50am 6.5ft 11s 6s 16 18 mph 1002.3mb 57f 59f
4:50am 7ft 11s 7s 16 20 mph 1002.6mb 57f 59f
3:50am 7ft 11s 7s 16 20 mph 1002.8mb 57f 59f
2:50am 7ft 10s 7s 16 18 mph 1003.3mb 57f 59f
1:50am 8ft 9s 7s 16 20 mph 1003.9mb 57f 60f
12:50am 8.5ft 10s 7s 16 18 mph 1004mb 57f 60f
Fri 10/17 11:50pm 8ft 11s 7s 16 20 mph 1004.1mb 57f 60f
10:50pm 7.5ft 10s 7s 16 18 mph 1004.3mb 57f 60f
9:50pm 7.5ft 10s 7s 18 20 mph 1004.3mb 57f 60f
8:50pm 7ft 10s 7s 18 22 mph 1004.2mb 57f 60f
7:50pm 6ft 11s 6s 16 20 mph 1004mb 58f 60f
6:50pm 6ft 10s 6s 13 18 mph 1003.8mb 58f 61f
5:50pm 6ft 11s 6s 18 22 mph 1003.2mb 58f 61f
4:50pm 6ft 10s 6s 18 22 mph 1003mb 58f 61f
3:50pm 6ft 11s 6s 16 20 mph 1002.7mb 58f 61f
2:50pm 6.5ft 9s 6s 18 20 mph 1002.5mb 58f 61f
1:50pm 7ft 8s 6s 18 20 mph 1001.9mb 58f 61f
12:50pm 7ft 9s 6s 20 25 mph 1002.4mb 58f 60f
11:50am 6ft 9s 6s 20 25 mph 1002.6mb 58f 60f
10:50am 6.5ft 8s 6s 20 22 mph 1002.4mb 58f 59f
9:50am 5ft 9s 6s 20 25 mph 1002.3mb 58f 59f
8:50am 4.5ft 8s 6s 13 16 mph 1001.9mb 58f 60f
7:50am 4.5ft 8s 6s 13 18 mph 1001.9mb 58f 60f
6:50am 4.5ft 7s 6s 9 11 mph 1000.9mb 58f 60f
5:50am 5ft 6s 6s 13 16 mph 1002.4mb 58f 60f
4:50am 4.5ft 7s 6s 9 11 mph 1003.4mb 58f 60f
3:50am 4.5ft 7s 6s 11 16 mph 1003.8mb 58f 60f
2:50am 5ft 8s 5s 13 18 mph 1003.7mb 58f 61f
1:50am 5ft 7s 5s 16 18 mph 1004.4mb 58f 61f
12:50am 5ft 7s 5s 18
mph
1005.5mb 58f 62f
Thu 10/16 11:50pm 5ft 8s 5s 16 18 mph 1006.5mb 58f 62f
10:50pm 5ft 6s 5s 18 20 mph 1006.7mb 57f 61f